Time,TemperatureF,DewpointF,PressureIn,WindDirection,WindDirectionDegrees,WindSpeedMPH,WindSpeedGustMPH,Humidity,HourlyPrecipIn,Conditions,Clouds,dailyrainin,SoftwareType,DateUTC
2013-03-08 00:04:00,33.6,28.3,30.30,NNW,338,0.0,6.0,81,0.00,,,0.00,WUHU216HW,2013-03-08 05:04:00,
2013-03-08 00:09:00,33.6,28.3,30.30,NW,315,0.0,0.0,81,0.00,,,0.00,WUHU216HW,2013-03-08 05:09:00,
2013-03-08 00:14:00,33.6,28.3,30.30,NW,315,0.0,0.0,81,0.00,,,0.00,WUHU216HW,2013-03-08 05:14:00,
2013-03-08 00:19:00,33.8,28.5,30.30,NW,315,0.0,5.3,81,0.00,,,0.00,WUHU216HW,2013-03-08 05:19:00,
2013-03-08 00:24:00,33.8,28.2,30.30,NW,315,0.0,6.0,80,0.00,,,0.00,WUHU216HW,2013-03-08 05:24:00,
2013-03-08 00:30:00,33.8,28.2,30.30,NNW,338,0.0,6.0,80,0.00,,,0.00,WUHU216HW,2013-03-08 05:30:00,
2013-03-08 00:36:00,33.8,28.2,30.30,North,0,0.0,4.4,80,0.00,,,0.00,WUHU216HW,2013-03-08 05:36:00,
2013-03-08 00:41:00,33.8,28.2,30.30,NNE,23,0.0,3.8,80,0.00,,,0.00,WUHU216HW,2013-03-08 05:41:00,
2013-03-08 00:46:00,33.8,28.2,30.30,NNW,338,0.0,0.0,80,0.00,,,0.00,WUHU216HW,2013-03-08 05:46:00,
2013-03-08 00:52:00,33.8,28.2,30.30,NNW,338,0.0,0.0,80,0.00,,,0.00,WUHU216HW,2013-03-08 05:52:00,
2013-03-08 00:57:00,33.8,28.2,30.30,NNW,338,0.0,0.0,80,0.00,,,0.00,WUHU216HW,2013-03-08 05:57:00,
2013-03-08 01:02:00,33.6,28.0,30.30,NNW,338,0.0,0.0,80,0.00,,,0.00,WUHU216HW,2013-03-08 06:02:00,
2013-03-08 01:08:00,33.6,28.0,30.30,WNW,293,0.0,6.0,80,0.00,,,0.00,WUHU216HW,2013-03-08 06:08:00,
2013-03-08 01:13:00,33.6,28.0,30.30,WNW,293,0.0,6.0,80,0.00,,,0.00,WUHU216HW,2013-03-08 06:13:00,
2013-03-08 01:18:00,33.6,28.0,30.30,NNW,338,0.0,0.8,80,0.00,,,0.00,WUHU216HW,2013-03-08 06:18:00,
2013-03-08 01:24:00,33.6,27.7,30.30,WNW,293,8.9,8.9,79,0.00,,,0.00,WUHU216HW,2013-03-08 06:24:00,
2013-03-08 01:30:00,33.6,27.7,30.30,NW,315,5.1,8.9,79,0.00,,,0.00,WUHU216HW,2013-03-08 06:30:00,
2013-03-08 01:41:00,33.4,27.5,30.31,North,0,0.0,0.0,79,0.00,,,0.00,WUHU216HW,2013-03-08 06:41:00,
2013-03-08 01:47:00,33.4,27.5,30.31,NNE,23,4.0,4.0,79,0.00,,,0.00,WUHU216HW,2013-03-08 06:47:00,
2013-03-08 01:52:00,33.4,27.5,30.31,NNW,338,0.0,4.0,79,0.00,,,0.00,WUHU216HW,2013-03-08 06:52:00,
2013-03-08 01:57:00,33.2,27.4,30.31,WNW,293,6.4,6.4,79,0.00,,,0.00,WUHU216HW,2013-03-08 06:57:00,
2013-03-08 02:03:00,33.2,27.4,30.31,North,0,0.0,6.4,79,0.00,,,0.00,WUHU216HW,2013-03-08 07:03:00,
2013-03-08 02:09:00,33.0,26.9,30.31,NNW,338,0.0,9.1,78,0.00,,,0.00,WUHU216HW,2013-03-08 07:09:00,
2013-03-08 02:14:00,33.0,26.9,30.31,NW,315,6.9,9.1,78,0.00,,,0.00,WUHU216HW,2013-03-08 07:14:00,
2013-03-08 02:19:00,33.0,26.9,30.31,NNW,338,3.1,9.3,78,0.00,,,0.00,WUHU216HW,2013-03-08 07:19:00,
2013-03-08 02:25:00,33.0,27.2,30.31,NNW,338,0.0,9.3,79,0.00,,,0.00,WUHU216HW,2013-03-08 07:25:00,
2013-03-08 02:30:00,32.9,27.0,30.31,NW,315,0.0,0.0,79,0.00,,,0.00,WUHU216HW,2013-03-08 07:30:00,
2013-03-08 02:36:00,32.9,27.0,30.31,NNW,338,0.0,0.0,79,0.00,,,0.00,WUHU216HW,2013-03-08 07:36:00,
2013-03-08 02:42:00,32.7,26.9,30.31,West,270,1.3,1.3,79,0.00,,,0.00,WUHU216HW,2013-03-08 07:42:00,
2013-03-08 02:48:00,32.7,26.9,30.31,NNW,338,0.0,8.0,79,0.00,,,0.00,WUHU216HW,2013-03-08 07:48:00,
2013-03-08 02:53:00,32.7,26.9,30.31,NW,315,7.1,8.0,79,0.00,,,0.00,WUHU216HW,2013-03-08 07:53:00,
2013-03-08 02:58:00,32.5,26.7,30.31,NNW,338,0.6,7.1,79,0.00,,,0.00,WUHU216HW,2013-03-08 07:58:00,
2013-03-08 03:03:00,32.5,26.7,30.31,NW,315,6.4,7.1,79,0.00,,,0.00,WUHU216HW,2013-03-08 08:03:00,
2013-03-08 03:08:00,32.5,26.7,30.30,North,0,0.0,9.3,79,0.00,,,0.00,WUHU216HW,2013-03-08 08:08:00,
2013-03-08 03:13:00,32.3,26.6,30.31,North,0,5.5,9.3,79,0.00,,,0.00,WUHU216HW,2013-03-08 08:13:00,
2013-03-08 03:18:00,32.3,26.6,30.30,NNW,338,5.5,5.5,79,0.00,,,0.00,WUHU216HW,2013-03-08 08:18:00,
2013-03-08 03:24:00,32.1,26.4,30.30,NW,315,0.0,5.5,79,0.00,,,0.00,WUHU216HW,2013-03-08 08:24:00,
2013-03-08 03:30:00,31.8,26.4,30.30,NW,315,6.9,6.9,79,0.00,,,0.00,WUHU216HW,2013-03-08 08:30:00,
2013-03-08 03:36:00,31.8,26.0,30.30,WNW,293,2.9,6.9,79,0.00,,,0.00,WUHU216HW,2013-03-08 08:36:00,
2013-03-08 03:41:00,31.6,25.9,30.31,NW,315,7.1,7.1,79,0.00,,,0.00,WUHU216HW,2013-03-08 08:41:00,
2013-03-08 03:46:00,31.6,25.9,30.31,NNW,338,6.4,7.1,79,0.00,,,0.00,WUHU216HW,2013-03-08 08:46:00,
2013-03-08 03:51:00,31.6,25.9,30.31,WNW,293,0.0,7.1,79,0.00,,,0.00,WUHU216HW,2013-03-08 08:51:00,
2013-03-08 03:57:00,31.6,25.9,30.31,WNW,293,7.8,7.8,79,0.00,,,0.00,WUHU216HW,2013-03-08 08:57:00,
2013-03-08 04:03:00,31.4,26.0,30.31,NW,315,5.5,8.2,80,0.00,,,0.00,WUHU216HW,2013-03-08 09:03:00,
2013-03-08 04:08:00,31.4,26.0,30.31,NNW,338,0.0,8.2,80,0.00,,,0.00,WUHU216HW,2013-03-08 09:08:00,
2013-03-08 04:14:00,31.4,26.0,30.32,WNW,293,0.0,5.5,80,0.00,,,0.00,WUHU216HW,2013-03-08 09:14:00,
2013-03-08 04:20:00,31.6,26.2,30.32,NNW,338,6.7,6.7,80,0.00,,,0.00,WUHU216HW,2013-03-08 09:20:00,
2013-03-08 04:25:00,31.6,26.2,30.32,NNW,338,0.0,6.7,80,0.00,,,0.00,WUHU216HW,2013-03-08 09:25:00,
2013-03-08 04:31:00,31.6,25.9,30.32,NW,315,5.5,6.7,79,0.00,,,0.00,WUHU216HW,2013-03-08 09:31:00,
2013-03-08 04:36:00,31.6,25.9,30.32,NW,315,7.8,7.8,79,0.00,,,0.00,WUHU216HW,2013-03-08 09:36:00,
2013-03-08 04:41:00,31.6,25.9,30.33,NNW,338,3.5,7.8,79,0.00,,,0.00,WUHU216HW,2013-03-08 09:41:00,
2013-03-08 04:47:00,31.6,25.9,30.33,North,0,0.0,4.0,79,0.00,,,0.00,WUHU216HW,2013-03-08 09:47:00,
2013-03-08 04:52:00,31.6,25.9,30.34,NNW,338,2.0,6.9,79,0.00,,,0.00,WUHU216HW,2013-03-08 09:52:00,
2013-03-08 04:57:00,31.6,25.9,30.34,NNW,338,0.0,8.0,79,0.00,,,0.00,WUHU216HW,2013-03-08 09:57:00,
2013-03-08 05:03:00,31.6,25.9,30.34,North,0,3.3,8.0,79,0.00,,,0.00,WUHU216HW,2013-03-08 10:03:00,
2013-03-08 05:08:00,31.6,25.9,30.34,NW,315,3.3,6.7,79,0.00,,,0.00,WUHU216HW,2013-03-08 10:08:00,
2013-03-08 05:13:00,31.6,25.9,30.34,NNW,338,0.0,5.5,79,0.00,,,0.00,WUHU216HW,2013-03-08 10:13:00,
2013-03-08 05:19:00,31.6,25.9,30.34,NNW,338,5.3,5.5,79,0.00,,,0.00,WUHU216HW,2013-03-08 10:19:00,
2013-03-08 05:24:00,31.6,25.9,30.34,NNW,338,2.0,8.7,79,0.00,,,0.00,WUHU216HW,2013-03-08 10:24:00,
2013-03-08 05:29:00,31.6,25.9,30.34,NNW,338,0.0,8.7,79,0.00,,,0.00,WUHU216HW,2013-03-08 10:29:00,
2013-03-08 05:34:00,31.6,25.9,30.34,WNW,293,2.6,4.4,79,0.00,,,0.00,WUHU216HW,2013-03-08 10:34:00,
2013-03-08 05:39:00,31.6,25.9,30.34,WNW,293,1.7,2.6,79,0.00,,,0.00,WUHU216HW,2013-03-08 10:39:00,
2013-03-08 05:45:00,31.6,25.9,30.34,NW,315,4.9,4.9,79,0.00,,,0.00,WUHU216HW,2013-03-08 10:45:00,
2013-03-08 05:50:00,31.4,25.7,30.35,WNW,293,3.5,4.9,79,0.00,,,0.00,WUHU216HW,2013-03-08 10:50:00,
2013-03-08 05:56:00,31.4,25.7,30.35,NW,315,6.7,6.7,79,0.00,,,0.00,WUHU216HW,2013-03-08 10:56:00,
2013-03-08 06:02:00,31.2,25.5,30.35,WNW,293,0.0,6.7,79,0.00,,,0.00,WUHU216HW,2013-03-08 11:02:00,
2013-03-08 06:08:00,31.2,25.5,30.35,WNW,293,4.0,4.2,79,0.00,,,0.00,WUHU216HW,2013-03-08 11:08:00,
2013-03-08 06:14:00,31.2,25.5,30.36,NW,315,2.4,4.0,79,0.00,,,0.00,WUHU216HW,2013-03-08 11:14:00,
2013-03-08 06:19:00,31.2,25.5,30.36,WNW,293,4.2,4.2,79,0.00,,,0.00,WUHU216HW,2013-03-08 11:19:00,
2013-03-08 06:25:00,31.2,25.5,30.36,West,270,6.2,6.2,79,0.00,,,0.00,WUHU216HW,2013-03-08 11:25:00,
2013-03-08 06:31:00,31.2,25.5,30.36,NNW,338,2.4,6.2,79,0.00,,,0.00,WUHU216HW,2013-03-08 11:31:00,
2013-03-08 06:37:00,31.2,25.5,30.37,NNW,338,0.0,5.8,79,0.00,,,0.00,WUHU216HW,2013-03-08 11:37:00,
2013-03-08 06:42:00,31.2,25.5,30.37,NNW,338,3.1,3.1,79,0.00,,,0.00,WUHU216HW,2013-03-08 11:42:00,
2013-03-08 06:48:00,31.2,25.5,30.38,NW,315,0.6,6.2,79,0.00,,,0.00,WUHU216HW,2013-03-08 11:48:00,
2013-03-08 06:53:00,31.2,25.5,30.38,NNW,338,0.0,6.2,79,0.00,,,0.00,WUHU216HW,2013-03-08 11:53:00,
2013-03-08 06:59:00,31.2,25.5,30.38,WNW,293,6.4,6.4,79,0.00,,,0.00,WUHU216HW,2013-03-08 11:59:00,
2013-03-08 07:05:00,31.2,25.8,30.38,NNW,338,0.0,6.4,80,0.00,,,0.00,WUHU216HW,2013-03-08 12:05:00,
2013-03-08 07:10:00,31.2,25.8,30.38,WNW,293,0.0,4.2,80,0.00,,,0.00,WUHU216HW,2013-03-08 12:10:00,
2013-03-08 07:15:00,31.2,25.8,30.38,NNW,338,4.9,6.2,80,0.00,,,0.00,WUHU216HW,2013-03-08 12:15:00,
2013-03-08 07:20:00,31.2,25.8,30.39,NNW,338,3.5,6.2,80,0.00,,,0.00,WUHU216HW,2013-03-08 12:20:00,
2013-03-08 07:26:00,31.4,26.0,30.39,NNW,338,0.0,4.9,80,0.00,,,0.00,WUHU216HW,2013-03-08 12:26:00,
2013-03-08 07:32:00,31.6,26.2,30.39,NNW,338,0.0,3.5,80,0.00,,,0.00,WUHU216HW,2013-03-08 12:32:00,
2013-03-08 07:37:00,31.6,26.2,30.39,NNW,338,0.0,0.0,80,0.00,,,0.00,WUHU216HW,2013-03-08 12:37:00,
2013-03-08 07:42:00,31.8,26.4,30.38,NNW,338,0.0,2.4,80,0.00,,,0.00,WUHU216HW,2013-03-08 12:42:00,
2013-03-08 07:47:00,32.1,26.7,30.38,WNW,293,7.8,7.8,80,0.00,,,0.00,WUHU216HW,2013-03-08 12:47:00,
2013-03-08 07:53:00,32.1,26.7,30.38,WNW,293,0.8,7.8,80,0.00,,,0.00,WUHU216HW,2013-03-08 12:53:00,
2013-03-08 07:59:00,32.1,26.7,30.38,WNW,293,3.8,5.3,80,0.00,,,0.00,WUHU216HW,2013-03-08 12:59:00,
2013-03-08 08:04:00,32.3,26.9,30.38,NNW,338,6.2,6.2,80,0.00,,,0.00,WUHU216HW,2013-03-08 13:04:00,
2013-03-08 08:09:00,32.5,27.0,30.38,NW,315,1.5,6.2,80,0.00,,,0.00,WUHU216HW,2013-03-08 13:09:00,
2013-03-08 08:14:00,32.5,27.0,30.39,WNW,293,0.0,6.2,80,0.00,,,0.00,WUHU216HW,2013-03-08 13:14:00,
2013-03-08 08:19:00,32.7,27.2,30.39,NNW,338,4.0,4.0,80,0.00,,,0.00,WUHU216HW,2013-03-08 13:19:00,
2013-03-08 08:24:00,32.7,26.9,30.39,WNW,293,5.5,5.5,79,0.00,,,0.00,WUHU216HW,2013-03-08 13:24:00,
2013-03-08 08:29:00,32.7,26.9,30.39,NW,315,5.8,6.0,79,0.00,,,0.00,WUHU216HW,2013-03-08 13:29:00,
2013-03-08 08:34:00,32.7,26.9,30.39,NNW,338,5.1,6.0,79,0.00,,,0.00,WUHU216HW,2013-03-08 13:34:00,
2013-03-08 08:39:00,32.9,27.0,30.39,NW,315,2.9,5.8,79,0.00,,,0.00,WUHU216HW,2013-03-08 13:39:00,
2013-03-08 08:44:00,33.0,27.2,30.39,NW,315,0.0,5.5,79,0.00,,,0.00,WUHU216HW,2013-03-08 13:44:00,
2013-03-08 08:50:00,33.0,27.2,30.39,NW,315,0.0,7.3,79,0.00,,,0.00,WUHU216HW,2013-03-08 13:50:00,
2013-03-08 08:56:00,33.4,27.5,30.39,North,0,2.4,7.3,79,0.00,,,0.00,WUHU216HW,2013-03-08 13:56:00,
2013-03-08 09:02:00,33.6,27.7,30.39,NNW,338,3.8,4.4,79,0.00,,,0.00,WUHU216HW,2013-03-08 14:02:00,
2013-03-08 09:07:00,33.6,27.7,30.39,West,270,3.5,3.8,79,0.00,,,0.00,WUHU216HW,2013-03-08 14:07:00,
2013-03-08 09:12:00,33.8,27.8,30.39,NNW,338,0.0,5.3,79,0.00,,,0.00,WUHU216HW,2013-03-08 14:12:00,
2013-03-08 09:17:00,33.9,28.0,30.40,NW,315,0.0,6.7,79,0.00,,,0.00,WUHU216HW,2013-03-08 14:17:00,
2013-03-08 09:23:00,34.3,28.4,30.39,WSW,248,0.0,6.7,79,0.00,,,0.00,WUHU216HW,2013-03-08 14:23:00,
2013-03-08 09:28:00,34.3,28.1,30.39,NNW,338,0.0,0.0,78,0.00,,,0.00,WUHU216HW,2013-03-08 14:28:00,
2013-03-08 09:34:00,34.8,28.4,30.40,NNW,338,6.4,6.4,78,0.00,,,0.00,WUHU216HW,2013-03-08 14:34:00,
2013-03-08 09:39:00,35.2,28.6,30.40,NNW,338,0.0,6.4,77,0.00,,,0.00,WUHU216HW,2013-03-08 14:39:00,
2013-03-08 09:45:00,35.4,28.8,30.40,North,0,0.0,6.4,77,0.00,,,0.00,WUHU216HW,2013-03-08 14:45:00,
2013-03-08 09:51:00,35.7,29.2,30.40,NNE,23,0.0,6.9,77,0.00,,,0.00,WUHU216HW,2013-03-08 14:51:00,
2013-03-08 09:56:00,35.7,28.9,30.40,NNW,338,0.0,6.9,76,0.00,,,0.00,WUHU216HW,2013-03-08 14:56:00,
2013-03-08 10:02:00,35.9,29.0,30.40,NE,45,4.0,4.0,76,0.00,,,0.00,WUHU216HW,2013-03-08 15:02:00,
2013-03-08 10:07:00,35.9,28.7,30.40,NNW,338,0.0,4.0,75,0.00,,,0.00,WUHU216HW,2013-03-08 15:07:00,
2013-03-08 10:13:00,36.1,28.9,30.40,North,0,4.9,4.9,75,0.00,,,0.00,WUHU216HW,2013-03-08 15:13:00,
2013-03-08 10:18:00,36.1,28.9,30.40,NNW,338,0.0,4.9,75,0.00,,,0.00,WUHU216HW,2013-03-08 15:18:00,
2013-03-08 10:24:00,36.3,29.1,30.40,WNW,293,3.3,4.9,75,0.00,,,0.00,WUHU216HW,2013-03-08 15:24:00,
2013-03-08 10:29:00,36.3,28.7,30.40,WNW,293,3.5,5.5,74,0.00,,,0.00,WUHU216HW,2013-03-08 15:29:00,
2013-03-08 10:34:00,36.3,28.7,30.40,North,0,0.0,7.8,74,0.00,,,0.00,WUHU216HW,2013-03-08 15:34:00,
2013-03-08 10:39:00,36.1,28.6,30.40,NW,315,0.0,7.8,74,0.00,,,0.00,WUHU216HW,2013-03-08 15:39:00,
2013-03-08 10:45:00,36.3,28.7,30.39,WNW,293,0.0,2.0,74,0.00,,,0.00,WUHU216HW,2013-03-08 15:45:00,
2013-03-08 10:51:00,36.8,29.3,30.40,North,0,0.0,4.0,74,0.00,,,0.00,WUHU216HW,2013-03-08 15:51:00,
2013-03-08 11:02:00,37.2,29.3,30.39,NW,315,6.0,6.0,73,0.00,,,0.00,WUHU216HW,2013-03-08 16:02:00,
2013-03-08 11:08:00,37.2,29.3,30.39,NNW,338,0.0,6.0,73,0.00,,,0.00,WUHU216HW,2013-03-08 16:08:00,
2013-03-08 11:13:00,37.2,29.3,30.39,NNW,338,0.0,8.2,73,0.00,,,0.00,WUHU216HW,2013-03-08 16:13:00,
2013-03-08 11:18:00,37.0,29.1,30.39,NW,315,0.0,8.2,73,0.00,,,0.00,WUHU216HW,2013-03-08 16:18:00,
2013-03-08 11:24:00,36.8,28.6,30.39,NW,315,0.0,4.9,72,0.00,,,0.00,WUHU216HW,2013-03-08 16:24:00,
2013-03-08 11:30:00,36.6,28.5,30.40,WNW,293,7.6,7.6,72,0.00,,,0.00,WUHU216HW,2013-03-08 16:30:00,
2013-03-08 11:35:00,36.6,28.5,30.39,NW,315,0.0,7.6,72,0.00,,,0.00,WUHU216HW,2013-03-08 16:35:00,
2013-03-08 11:41:00,36.5,28.3,30.39,NNE,23,0.0,7.6,72,0.00,,,0.00,WUHU216HW,2013-03-08 16:41:00,
2013-03-08 11:46:00,36.5,28.3,30.39,NNW,338,0.0,5.1,72,0.00,,,0.00,WUHU216HW,2013-03-08 16:46:00,
2013-03-08 11:52:00,36.5,28.6,30.40,NW,315,3.8,5.1,73,0.00,,,0.00,WUHU216HW,2013-03-08 16:52:00,
2013-03-08 11:57:00,36.3,28.4,30.39,NNE,23,0.0,7.3,73,0.00,,,0.00,WUHU216HW,2013-03-08 16:57:00,
2013-03-08 12:02:00,36.5,28.6,30.39,NNW,338,0.2,7.3,73,0.00,,,0.00,WUHU216HW,2013-03-08 17:02:00,
2013-03-08 12:08:00,36.6,28.8,30.39,North,0,0.2,3.5,73,0.00,,,0.00,WUHU216HW,2013-03-08 17:08:00,
2013-03-08 12:14:00,36.6,28.8,30.39,North,0,0.0,0.2,73,0.00,,,0.00,WUHU216HW,2013-03-08 17:14:00,
2013-03-08 12:19:00,36.8,28.6,30.39,NNW,338,6.4,6.4,72,0.00,,,0.00,WUHU216HW,2013-03-08 17:19:00,
2013-03-08 12:25:00,37.0,28.8,30.39,NNW,338,2.0,6.4,72,0.00,,,0.00,WUHU216HW,2013-03-08 17:25:00,
2013-03-08 12:30:00,37.0,28.8,30.39,NNW,338,0.0,6.4,72,0.00,,,0.00,WUHU216HW,2013-03-08 17:30:00,
2013-03-08 12:36:00,37.2,28.8,30.39,NNW,338,4.4,5.1,72,0.00,,,0.00,WUHU216HW,2013-03-08 17:36:00,
2013-03-08 12:42:00,37.2,29.0,30.38,NW,315,5.5,5.5,72,0.00,,,0.00,WUHU216HW,2013-03-08 17:42:00,
2013-03-08 12:47:00,37.9,29.7,30.38,NW,315,9.6,9.6,72,0.00,,,0.00,WUHU216HW,2013-03-08 17:47:00,
2013-03-08 12:52:00,38.1,29.5,30.38,NW,315,7.8,9.6,71,0.00,,,0.00,WUHU216HW,2013-03-08 17:52:00,
2013-03-08 12:58:00,38.1,29.5,30.38,WNW,293,0.0,9.6,71,0.00,,,0.00,WUHU216HW,2013-03-08 17:58:00,
2013-03-08 13:03:00,37.9,29.3,30.37,WNW,293,6.0,7.8,71,0.00,,,0.00,WUHU216HW,2013-03-08 18:03:00,
2013-03-08 13:08:00,37.9,29.3,30.38,NW,315,7.1,7.8,71,0.00,,,0.00,WUHU216HW,2013-03-08 18:08:00,
2013-03-08 13:14:00,37.9,29.0,30.37,NNW,338,4.2,7.1,70,0.00,,,0.00,WUHU216HW,2013-03-08 18:14:00,
2013-03-08 13:19:00,37.9,29.0,30.38,NW,315,6.4,7.1,70,0.00,,,0.00,WUHU216HW,2013-03-08 18:19:00,
2013-03-08 13:25:00,37.7,28.9,30.38,North,0,3.3,6.7,70,0.00,,,0.00,WUHU216HW,2013-03-08 18:25:00,
2013-03-08 13:31:00,37.9,29.3,30.38,NW,315,3.8,4.9,71,0.00,,,0.00,WUHU216HW,2013-03-08 18:31:00,
2013-03-08 13:36:00,38.1,29.5,30.38,WNW,293,5.3,7.3,71,0.00,,,0.00,WUHU216HW,2013-03-08 18:36:00,
2013-03-08 13:41:00,38.1,29.5,30.38,WSW,248,5.1,7.3,71,0.00,,,0.00,WUHU216HW,2013-03-08 18:41:00,
2013-03-08 13:47:00,37.9,29.3,30.37,NNW,338,7.6,16.1,71,0.00,,,0.00,WUHU216HW,2013-03-08 18:47:00,
2013-03-08 13:58:00,37.9,29.3,30.37,NNW,338,0.0,7.6,71,0.00,,,0.00,WUHU216HW,2013-03-08 18:58:00,
2013-03-08 14:04:00,38.1,29.5,30.38,North,0,2.9,4.0,71,0.00,,,0.00,WUHU216HW,2013-03-08 19:04:00,
2013-03-08 14:09:00,38.4,29.8,30.38,NW,315,0.0,3.8,71,0.00,,,0.00,WUHU216HW,2013-03-08 19:09:00,
2013-03-08 14:14:00,38.6,30.0,30.38,WNW,293,4.9,4.9,71,0.00,,,0.00,WUHU216HW,2013-03-08 19:14:00,
2013-03-08 14:19:00,38.6,29.7,30.38,WNW,293,2.2,4.9,70,0.00,,,0.00,WUHU216HW,2013-03-08 19:19:00,
2013-03-08 14:25:00,38.4,29.1,30.38,NW,315,0.8,4.4,69,0.00,,,0.00,WUHU216HW,2013-03-08 19:25:00,
2013-03-08 14:30:00,38.4,29.5,30.38,NNW,338,0.0,2.2,70,0.00,,,0.00,WUHU216HW,2013-03-08 19:30:00,
2013-03-08 14:36:00,38.4,29.5,30.38,WNW,293,0.0,6.7,70,0.00,,,0.00,WUHU216HW,2013-03-08 19:36:00,
2013-03-08 14:42:00,38.4,29.1,30.38,WNW,293,0.0,6.7,69,0.00,,,0.00,WUHU216HW,2013-03-08 19:42:00,
2013-03-08 14:48:00,38.4,29.1,30.38,NW,315,8.2,8.2,69,0.00,,,0.00,WUHU216HW,2013-03-08 19:48:00,
2013-03-08 14:53:00,38.4,29.1,30.38,WNW,293,3.5,8.2,69,0.00,,,0.00,WUHU216HW,2013-03-08 19:53:00,
2013-03-08 14:59:00,38.3,29.3,30.38,WSW,248,0.0,3.5,70,0.00,,,0.00,WUHU216HW,2013-03-08 19:59:00,
2013-03-08 15:04:00,38.3,29.3,30.38,North,0,2.4,3.5,70,0.00,,,0.00,WUHU216HW,2013-03-08 20:04:00,
2013-03-08 15:10:00,38.4,29.5,30.38,SSW,203,1.1,2.4,70,0.00,,,0.00,WUHU216HW,2013-03-08 20:10:00,
2013-03-08 15:15:00,38.8,29.8,30.38,NW,315,0.0,2.4,70,0.00,,,0.00,WUHU216HW,2013-03-08 20:15:00,
2013-03-08 15:20:00,38.8,29.8,30.38,NW,315,0.0,1.1,70,0.00,,,0.00,WUHU216HW,2013-03-08 20:20:00,
2013-03-08 15:26:00,38.8,29.8,30.38,NW,315,0.0,0.0,70,0.00,,,0.00,WUHU216HW,2013-03-08 20:26:00,
2013-03-08 15:31:00,38.8,29.4,30.38,WNW,293,0.2,0.2,69,0.00,,,0.00,WUHU216HW,2013-03-08 20:31:00,
2013-03-08 15:37:00,38.8,29.4,30.38,NW,315,0.0,2.4,69,0.00,,,0.00,WUHU216HW,2013-03-08 20:37:00,
2013-03-08 15:42:00,38.4,29.1,30.38,NW,315,1.7,2.4,69,0.00,,,0.00,WUHU216HW,2013-03-08 20:42:00,
2013-03-08 15:47:00,38.3,29.3,30.38,WNW,293,5.5,5.5,70,0.00,,,0.00,WUHU216HW,2013-03-08 20:47:00,
2013-03-08 15:52:00,38.3,29.3,30.39,WNW,293,5.1,6.0,70,0.00,,,0.00,WUHU216HW,2013-03-08 20:52:00,
2013-03-08 15:58:00,38.1,29.2,30.38,WNW,293,0.0,6.0,70,0.00,,,0.00,WUHU216HW,2013-03-08 20:58:00,
2013-03-08 16:03:00,38.3,29.3,30.39,WNW,293,0.0,4.9,70,0.00,,,0.00,WUHU216HW,2013-03-08 21:03:00,
2013-03-08 16:08:00,38.4,29.5,30.39,West,270,2.2,4.9,70,0.00,,,0.00,WUHU216HW,2013-03-08 21:08:00,
2013-03-08 16:14:00,38.4,29.5,30.39,NW,315,0.0,2.2,70,0.00,,,0.00,WUHU216HW,2013-03-08 21:14:00,
2013-03-08 16:20:00,38.8,29.8,30.39,WSW,248,0.0,5.8,70,0.00,,,0.00,WUHU216HW,2013-03-08 21:20:00,
2013-03-08 16:25:00,39.0,30.0,30.39,NW,315,0.0,5.8,70,0.00,,,0.00,WUHU216HW,2013-03-08 21:25:00,
2013-03-08 16:31:00,39.0,30.0,30.39,NW,315,0.0,1.7,70,0.00,,,0.00,WUHU216HW,2013-03-08 21:31:00,
2013-03-08 16:36:00,39.0,30.0,30.39,WNW,293,0.0,4.2,70,0.00,,,0.00,WUHU216HW,2013-03-08 21:36:00,
2013-03-08 16:46:00,39.0,29.6,30.39,NW,315,0.0,0.0,69,0.00,,,0.00,WUHU216HW,2013-03-08 21:46:00,
2013-03-08 16:52:00,39.0,29.6,30.39,WNW,293,0.0,0.0,69,0.00,,,0.00,WUHU216HW,2013-03-08 21:52:00,
2013-03-08 16:58:00,39.0,29.6,30.39,WSW,248,0.0,4.0,69,0.00,,,0.00,WUHU216HW,2013-03-08 21:58:00,
2013-03-08 17:04:00,39.0,29.6,30.39,NW,315,0.0,4.0,69,0.00,,,0.00,WUHU216HW,2013-03-08 22:04:00,
2013-03-08 17:09:00,39.0,29.6,30.40,NW,315,0.0,0.0,69,0.00,,,0.00,WUHU216HW,2013-03-08 22:09:00,
2013-03-08 17:15:00,39.0,29.6,30.40,NW,315,3.1,3.1,69,0.00,,,0.00,WUHU216HW,2013-03-08 22:15:00,
2013-03-08 17:20:00,39.0,29.6,30.39,West,270,0.0,3.1,69,0.00,,,0.00,WUHU216HW,2013-03-08 22:20:00,
2013-03-08 17:26:00,38.8,29.4,30.40,West,270,0.0,3.1,69,0.00,,,0.00,WUHU216HW,2013-03-08 22:26:00,
2013-03-08 17:31:00,38.6,29.7,30.40,WNW,293,0.0,0.0,70,0.00,,,0.00,WUHU216HW,2013-03-08 22:31:00,
2013-03-08 17:36:00,38.3,29.3,30.40,NW,315,0.0,0.0,70,0.00,,,0.00,WUHU216HW,2013-03-08 22:36:00,
2013-03-08 17:41:00,37.9,29.0,30.40,WNW,293,0.0,2.2,70,0.00,,,0.00,WUHU216HW,2013-03-08 22:41:00,
2013-03-08 17:47:00,37.7,28.9,30.40,West,270,0.0,2.2,70,0.00,,,0.00,WUHU216HW,2013-03-08 22:47:00,
2013-03-08 17:52:00,37.4,28.5,30.40,West,270,0.0,0.0,70,0.00,,,0.00,WUHU216HW,2013-03-08 22:52:00,
2013-03-08 17:57:00,37.2,28.4,30.39,West,270,0.0,0.0,70,0.00,,,0.00,WUHU216HW,2013-03-08 22:57:00,
2013-03-08 18:07:00,36.5,27.6,30.40,NW,315,0.0,1.5,70,0.00,,,0.00,WUHU216HW,2013-03-08 23:07:00,
2013-03-08 18:13:00,36.3,27.8,30.41,NW,315,0.0,1.5,71,0.00,,,0.00,WUHU216HW,2013-03-08 23:13:00,
2013-03-08 18:19:00,35.9,27.4,30.41,WSW,248,0.0,0.0,71,0.00,,,0.00,WUHU216HW,2013-03-08 23:19:00,
2013-03-08 18:24:00,35.7,27.2,30.41,WSW,248,0.0,0.0,71,0.00,,,0.00,WUHU216HW,2013-03-08 23:24:00,
2013-03-08 18:30:00,35.4,27.2,30.41,WSW,248,0.0,0.0,72,0.00,,,0.00,WUHU216HW,2013-03-08 23:30:00,
2013-03-08 18:36:00,35.2,27.0,30.41,NW,315,0.0,0.0,72,0.00,,,0.00,WUHU216HW,2013-03-08 23:36:00,
2013-03-08 18:41:00,35.0,26.8,30.41,WSW,248,0.0,0.0,72,0.00,,,0.00,WUHU216HW,2013-03-08 23:41:00,
2013-03-08 18:46:00,34.8,26.7,30.41,WSW,248,0.0,0.0,72,0.00,,,0.00,WUHU216HW,2013-03-08 23:46:00,
2013-03-08 18:57:00,33.8,25.6,30.41,WSW,248,0.0,0.0,72,0.00,,,0.00,WUHU216HW,2013-03-08 23:57:00,
2013-03-08 19:03:00,33.6,25.4,30.42,WSW,248,0.0,0.0,72,0.00,,,0.00,WUHU216HW,2013-03-09 00:03:00,
2013-03-08 19:08:00,33.0,24.9,30.42,West,270,0.0,0.0,72,0.00,,,0.00,WUHU216HW,2013-03-09 00:08:00,
2013-03-08 19:13:00,32.9,25.1,30.42,West,270,0.0,0.0,73,0.00,,,0.00,WUHU216HW,2013-03-09 00:13:00,
2013-03-08 19:19:00,32.7,24.9,30.42,West,270,0.0,0.0,73,0.00,,,0.00,WUHU216HW,2013-03-09 00:19:00,
2013-03-08 19:24:00,32.5,25.1,30.42,West,270,0.0,0.0,74,0.00,,,0.00,WUHU216HW,2013-03-09 00:24:00,
2013-03-08 19:29:00,32.3,24.9,30.41,West,270,0.0,0.0,74,0.00,,,0.00,WUHU216HW,2013-03-09 00:29:00,
2013-03-08 19:35:00,32.3,24.9,30.42,WSW,248,0.0,0.0,74,0.00,,,0.00,WUHU216HW,2013-03-09 00:35:00,
2013-03-08 19:41:00,32.5,25.4,30.42,West,270,0.0,0.0,75,0.00,,,0.00,WUHU216HW,2013-03-09 00:41:00,
2013-03-08 19:46:00,32.5,25.4,30.41,West,270,0.0,0.0,75,0.00,,,0.00,WUHU216HW,2013-03-09 00:46:00,
2013-03-08 19:52:00,32.3,25.3,30.41,West,270,0.0,0.0,75,0.00,,,0.00,WUHU216HW,2013-03-09 00:52:00,
2013-03-08 19:58:00,32.1,25.1,30.42,West,270,0.0,0.0,75,0.00,,,0.00,WUHU216HW,2013-03-09 00:58:00,
2013-03-08 20:04:00,31.8,24.8,30.42,West,270,0.0,0.0,75,0.00,,,0.00,WUHU216HW,2013-03-09 01:04:00,
2013-03-08 20:14:00,31.4,24.4,30.42,West,270,0.0,0.0,75,0.00,,,0.00,WUHU216HW,2013-03-09 01:14:00,
2013-03-08 20:20:00,30.9,23.9,30.42,West,270,0.0,0.0,75,0.00,,,0.00,WUHU216HW,2013-03-09 01:20:00,
2013-03-08 20:25:00,30.7,23.7,30.42,West,270,0.0,0.0,75,0.00,,,0.00,WUHU216HW,2013-03-09 01:25:00,
2013-03-08 20:31:00,30.3,23.6,30.42,West,270,0.0,0.0,76,0.00,,,0.00,WUHU216HW,2013-03-09 01:31:00,
2013-03-08 20:36:00,30.0,23.3,30.42,West,270,0.0,0.0,76,0.00,,,0.00,WUHU216HW,2013-03-09 01:36:00,
2013-03-08 20:41:00,30.0,23.3,30.42,West,270,0.0,0.0,76,0.00,,,0.00,WUHU216HW,2013-03-09 01:41:00,
2013-03-08 20:46:00,29.8,23.4,30.41,West,270,0.0,0.0,77,0.00,,,0.00,WUHU216HW,2013-03-09 01:46:00,
2013-03-08 20:52:00,29.4,23.1,30.41,West,270,0.0,0.0,77,0.00,,,0.00,WUHU216HW,2013-03-09 01:52:00,
2013-03-08 20:58:00,29.3,22.9,30.42,West,270,0.0,0.0,77,0.00,,,0.00,WUHU216HW,2013-03-09 01:58:00,
2013-03-08 21:03:00,29.1,22.7,30.41,West,270,0.0,0.0,77,0.00,,,0.00,WUHU216HW,2013-03-09 02:03:00,
2013-03-08 21:09:00,29.1,23.0,30.42,West,270,0.0,0.0,78,0.00,,,0.00,WUHU216HW,2013-03-09 02:09:00,
2013-03-08 21:15:00,28.9,22.9,30.42,West,270,0.0,0.0,78,0.00,,,0.00,WUHU216HW,2013-03-09 02:15:00,
2013-03-08 21:21:00,28.9,22.9,30.41,West,270,0.0,0.0,78,0.00,,,0.00,WUHU216HW,2013-03-09 02:21:00,
2013-03-08 21:27:00,28.5,22.8,30.41,West,270,0.0,0.0,79,0.00,,,0.00,WUHU216HW,2013-03-09 02:27:00,
2013-03-08 21:32:00,28.5,22.8,30.41,West,270,0.0,0.0,79,0.00,,,0.00,WUHU216HW,2013-03-09 02:32:00,
2013-03-08 21:38:00,28.2,22.5,30.41,West,270,0.0,0.0,79,0.00,,,0.00,WUHU216HW,2013-03-09 02:38:00,
2013-03-08 21:43:00,28.0,22.3,30.40,West,270,0.0,0.0,79,0.00,,,0.00,WUHU216HW,2013-03-09 02:43:00,
2013-03-08 21:49:00,28.0,22.3,30.41,West,270,0.0,0.0,79,0.00,,,0.00,WUHU216HW,2013-03-09 02:49:00,
2013-03-08 21:54:00,27.6,21.9,30.40,West,270,0.0,0.0,79,0.00,,,0.00,WUHU216HW,2013-03-09 02:54:00,
2013-03-08 21:59:00,27.6,21.9,30.40,West,270,0.0,0.0,79,0.00,,,0.00,WUHU216HW,2013-03-09 02:59:00,
2013-03-08 22:05:00,27.5,21.7,30.40,West,270,0.0,0.0,79,0.00,,,0.00,WUHU216HW,2013-03-09 03:05:00,
2013-03-08 22:11:00,27.1,21.7,30.40,West,270,0.0,0.0,80,0.00,,,0.00,WUHU216HW,2013-03-09 03:11:00,
2013-03-08 22:17:00,27.1,21.7,30.41,West,270,0.0,0.0,80,0.00,,,0.00,WUHU216HW,2013-03-09 03:17:00,
2013-03-08 22:22:00,26.9,21.5,30.41,West,270,0.0,0.0,80,0.00,,,0.00,WUHU216HW,2013-03-09 03:22:00,
2013-03-08 22:28:00,26.7,21.3,30.41,West,270,0.0,0.0,80,0.00,,,0.00,WUHU216HW,2013-03-09 03:28:00,
2013-03-08 22:34:00,26.7,21.6,30.41,West,270,0.0,0.0,81,0.00,,,0.00,WUHU216HW,2013-03-09 03:34:00,
2013-03-08 22:44:00,26.4,21.3,30.41,West,270,0.0,0.0,81,0.00,,,0.00,WUHU216HW,2013-03-09 03:44:00,
2013-03-08 22:49:00,26.4,21.3,30.41,West,270,0.0,0.0,81,0.00,,,0.00,WUHU216HW,2013-03-09 03:49:00,
2013-03-08 22:55:00,26.2,21.1,30.41,West,270,0.0,0.0,81,0.00,,,0.00,WUHU216HW,2013-03-09 03:55:00,
2013-03-08 23:00:00,26.2,21.1,30.42,West,270,0.0,0.0,81,0.00,,,0.00,WUHU216HW,2013-03-09 04:00:00,
2013-03-08 23:05:00,25.8,20.8,30.41,West,270,0.0,0.0,81,0.00,,,0.00,WUHU216HW,2013-03-09 04:05:00,
2013-03-08 23:10:00,25.8,20.8,30.41,West,270,0.0,0.0,81,0.00,,,0.00,WUHU216HW,2013-03-09 04:10:00,
2013-03-08 23:15:00,25.7,20.9,30.41,West,270,0.0,0.0,82,0.00,,,0.00,WUHU216HW,2013-03-09 04:15:00,
2013-03-08 23:21:00,25.5,20.7,30.41,West,270,0.0,0.0,82,0.00,,,0.00,WUHU216HW,2013-03-09 04:21:00,
2013-03-08 23:27:00,25.5,20.7,30.41,West,270,0.0,0.0,82,0.00,,,0.00,WUHU216HW,2013-03-09 04:27:00,
2013-03-08 23:33:00,25.3,20.6,30.42,West,270,0.0,0.0,82,0.00,,,0.00,WUHU216HW,2013-03-09 04:33:00,
2013-03-08 23:38:00,25.3,20.6,30.42,West,270,0.0,0.0,82,0.00,,,0.00,WUHU216HW,2013-03-09 04:38:00,
2013-03-08 23:44:00,25.3,20.6,30.42,West,270,0.0,0.0,83,0.00,,,0.00,WUHU216HW,2013-03-09 04:44:00,
2013-03-08 23:49:00,25.1,20.7,30.42,West,270,0.0,0.0,83,0.00,,,0.00,WUHU216HW,2013-03-09 04:49:00,
2013-03-08 23:55:00,25.1,20.7,30.42,West,270,0.0,0.0,83,0.00,,,0.00,WUHU216HW,2013-03-09 04:55:00,